Time;durP1;ratioP1;P1;durP2;ratioP2;P2;SDS_P1;SDS_P2;PMS_P1;PMS_P2;Temp;Humidity;BMP_temperature;BMP_pressure;BME280_temperature;BME280_humidity;BME280_pressure;Samples;Min_cycle;Max_cycle;Signal;HPM_P1;HPM_P2
2021/01/10 00:00:31;;;;;;;58.63;28.07;;;;;;;-0.20;82.09;100212.86;1619251;86;21186;-75
2021/01/10 00:03:00;;;;;;;57.85;27.60;;;;;;;-0.20;81.86;100225.80;1659588;86;21227;-76
2021/01/10 00:05:31;;;;;;;50.08;26.20;;;;;;;-0.20;81.96;100221.92;1659621;86;22138;-76
2021/01/10 00:07:59;;;;;;;54.48;26.15;;;;;;;-0.20;81.89;100227.10;1659514;85;21275;-76
2021/01/10 00:10:28;;;;;;;50.90;25.43;;;;;;;-0.20;81.85;100227.10;1659535;85;21179;-76
2021/01/10 00:12:57;;;;;;;55.03;26.57;;;;;;;-0.20;81.84;100230.55;1659582;86;21179;-77
2021/01/10 00:15:25;;;;;;;48.23;24.87;;;;;;;-0.19;81.87;100236.15;1659884;85;21147;-77
2021/01/10 00:17:54;;;;;;;58.95;25.43;;;;;;;-0.18;81.94;100234.42;1659423;86;22251;-76
2021/01/10 00:20:22;;;;;;;50.12;24.92;;;;;;;-0.18;82.11;100233.13;1659567;86;22215;-77
2021/01/10 00:22:52;;;;;;;49.88;25.50;;;;;;;-0.17;82.10;100241.34;1659503;86;21191;-76
2021/01/10 00:25:20;;;;;;;54.73;26.60;;;;;;;-0.16;82.17;100239.19;1659628;86;21223;-76
2021/01/10 00:27:48;;;;;;;59.00;26.05;;;;;;;-0.15;82.40;100243.09;1654166;86;21584;-77
2021/01/10 00:30:19;;;;;;;63.42;28.87;;;;;;;-0.15;81.82;100244.83;1640905;87;21240;-77
2021/01/10 00:32:50;;;;;;;57.78;26.40;;;;;;;-0.15;81.98;100242.23;1641020;87;21116;-77
2021/01/10 00:35:18;;;;;;;53.68;26.40;;;;;;;-0.14;81.69;100246.54;1640833;87;21216;-78
2021/01/10 00:37:49;;;;;;;51.70;25.05;;;;;;;-0.10;81.79;100247.02;1640888;87;21215;-76
2021/01/10 00:40:18;;;;;;;56.20;25.27;;;;;;;-0.11;81.42;100247.88;1640881;87;21618;-78
2021/01/10 00:42:46;;;;;;;53.30;24.87;;;;;;;-0.11;81.28;100246.16;1640990;86;22329;-78
2021/01/10 00:45:15;;;;;;;50.52;24.32;;;;;;;-0.08;81.42;100247.89;1640788;87;21208;-77
2021/01/10 00:47:44;;;;;;;52.75;26.12;;;;;;;-0.08;81.17;100242.72;1653171;86;21699;-77
2021/01/10 00:50:14;;;;;;;48.30;24.18;;;;;;;-0.08;81.10;100238.84;1659834;86;21218;-82
2021/01/10 00:52:42;;;;;;;46.45;23.83;;;;;;;-0.09;81.20;100240.97;1659312;86;21124;-82
2021/01/10 00:55:11;;;;;;;50.98;24.77;;;;;;;-0.10;81.44;100234.07;1660772;86;22021;-83
2021/01/10 00:57:42;;;;;;;49.95;24.60;;;;;;;-0.10;81.49;100244.42;1650222;86;21186;-82
2021/01/10 01:00:13;;;;;;;51.68;25.55;;;;;;;-0.10;81.46;100243.13;1627245;88;21194;-82
2021/01/10 01:02:43;;;;;;;51.33;23.95;;;;;;;-0.10;81.08;100240.55;1642232;86;21155;-82
2021/01/10 01:05:11;;;;;;;59.60;25.97;;;;;;;-0.08;81.45;100242.72;1661338;86;21183;-81
2021/01/10 01:07:43;;;;;;;52.83;25.82;;;;;;;-0.07;81.40;100245.73;1661127;86;22030;-83
2021/01/10 01:10:11;;;;;;;;;;;;;;;-0.05;81.63;100245.33;1663433;86;21167;-80
2021/01/10 01:12:40;;;;;;;52.10;24.20;;;;;;;-0.05;81.00;100244.03;1660419;86;20251;-81
2021/01/10 01:15:10;;;;;;;49.27;23.40;;;;;;;-0.05;80.96;100244.03;1661811;86;21612;-77
2021/01/10 01:17:38;;;;;;;57.00;28.75;;;;;;;-0.04;81.17;100245.78;1663295;86;21183;-79
2021/01/10 01:20:09;;;;;;;54.05;26.48;;;;;;;-0.07;80.76;100237.97;1639087;86;21432;-78
2021/01/10 01:22:40;;;;;;;45.75;21.93;;;;;;;-0.06;81.15;100239.72;1663310;86;21152;-81
2021/01/10 01:25:09;;;;;;;57.33;28.57;;;;;;;-0.05;81.10;100238.84;1663376;86;21194;-79
2021/01/10 01:27:37;;;;;;;51.40;25.80;;;;;;;-0.04;81.23;100243.19;1664089;86;21187;-81
2021/01/10 01:30:07;;;;;;;44.63;21.70;;;;;;;-0.03;81.10;100250.09;1664335;86;21247;-79
2021/01/10 01:32:37;;;;;;;48.10;24.12;;;;;;;-0.01;81.23;100253.56;1663825;86;21382;-82
2021/01/10 01:35:06;;;;;;;47.38;23.55;;;;;;;0.00;81.27;100247.55;1663943;86;21211;-78
2021/01/10 01:37:41;;;;;;;46.15;22.50;;;;;;;0.02;81.37;100247.53;1663939;86;21188;-79
2021/01/10 01:40:09;;;;;;;49.33;24.50;;;;;;;0.03;81.17;100244.97;1664051;86;21187;-79
2021/01/10 01:42:38;;;;;;;60.30;27.98;;;;;;;0.01;80.84;100247.97;1662641;86;21132;-78
2021/01/10 01:45:08;;;;;;;53.50;25.80;;;;;;;0.00;81.05;100250.13;1660125;86;21285;-78
2021/01/10 01:47:36;;;;;;;61.92;28.75;;;;;;;0.02;80.87;100249.69;1660798;86;21214;-81
2021/01/10 01:50:09;;;;;;;56.05;25.35;;;;;;;0.02;80.91;100247.10;1661977;86;21143;-81
2021/01/10 01:52:40;;;;;;;49.45;22.80;;;;;;;0.04;80.59;100246.69;1663158;86;21194;-79
2021/01/10 01:55:09;;;;;;;45.25;22.65;;;;;;;0.06;80.77;100247.57;1636190;86;21801;-79
2021/01/10 01:57:39;;;;;;;54.42;25.57;;;;;;;0.07;80.44;100247.13;1635467;86;21429;-75
2021/01/10 02:00:09;;;;;;;50.17;24.72;;;;;;;0.04;80.42;100249.71;1660383;86;21186;-80
2021/01/10 02:02:43;;;;;;;49.30;24.77;;;;;;;0.00;80.59;100255.31;1669632;85;21143;-83
2021/01/10 02:05:16;;;;;;;42.13;21.55;;;;;;;0.03;80.80;100254.03;1671169;84;21144;-79
2021/01/10 02:08:07;;;;;;;46.23;22.62;;;;;;;0.04;80.82;100254.89;1667810;86;21166;-80
2021/01/10 02:10:38;;;;;;;46.02;22.52;;;;;;;0.04;81.15;100251.01;1667818;86;22234;-80
2021/01/10 02:13:14;;;;;;;53.58;24.18;;;;;;;0.05;81.03;100250.17;1667480;86;21178;-81
2021/01/10 02:15:43;;;;;;;54.73;26.57;;;;;;;0.05;80.67;100261.39;1648864;86;21150;-83
2021/01/10 02:18:10;;;;;;;52.53;25.82;;;;;;;0.06;80.85;100252.75;1667675;86;21190;-82
2021/01/10 02:20:42;;;;;;;55.78;25.80;;;;;;;0.05;80.49;100261.39;1667335;86;21570;-80
2021/01/10 02:23:16;;;;;;;;;;;;;;;0.06;80.56;100255.34;1676238;85;21468;-81
2021/01/10 02:25:45;;;;;;;52.17;25.40;;;;;;;0.07;80.45;100258.39;1650583;86;20232;-80
2021/01/10 02:28:16;;;;;;;48.98;24.47;;;;;;;0.04;80.45;100264.81;1638424;87;21642;-81
2021/01/10 02:30:44;;;;;;;52.60;25.15;;;;;;;0.02;80.48;100257.45;1686448;85;21159;-79
2021/01/10 02:33:41;;;;;;;50.65;24.77;;;;;;;0.02;80.51;100257.89;1650678;86;21129;-81
2021/01/10 02:36:37;;;;;;;53.25;25.05;;;;;;;0.01;80.44;100261.35;1645479;86;21463;-81
2021/01/10 02:39:12;;;;;;;55.85;25.48;;;;;;;-0.01;80.36;100266.50;1650255;86;21196;-78
2021/01/10 02:41:46;;;;;;;61.37;27.17;;;;;;;-0.02;80.28;100260.91;1650327;86;21592;-77
2021/01/10 02:44:38;;;;;;;56.80;26.60;;;;;;;-0.03;80.10;100257.86;1650173;86;21180;-76
2021/01/10 02:47:07;;;;;;;50.38;23.90;;;;;;;-0.06;80.20;100257.84;1650104;86;21603;-76
2021/01/10 02:49:35;;;;;;;52.93;25.88;;;;;;;-0.07;80.53;100263.45;1650097;86;21407;-77
2021/01/10 02:52:03;;;;;;;51.40;24.00;;;;;;;-0.10;80.30;100262.11;1649989;86;21181;-78
2021/01/10 02:54:31;;;;;;;49.55;23.50;;;;;;;-0.11;80.62;100254.36;1653049;85;21572;-79
2021/01/10 02:57:15;;;;;;;53.42;25.25;;;;;;;-0.10;80.74;100252.19;1688533;85;22335;-77
2021/01/10 02:59:44;;;;;;;54.33;27.05;;;;;;;-0.10;80.53;100261.25;1615151;87;21207;-76
2021/01/10 03:02:13;;;;;;;52.95;24.15;;;;;;;-0.10;80.72;100256.08;1648503;85;22152;-77
2021/01/10 03:04:41;;;;;;;54.33;25.70;;;;;;;-0.09;80.61;100251.32;1669182;85;21158;-78
2021/01/10 03:07:09;;;;;;;53.52;27.20;;;;;;;-0.11;80.31;100257.80;1669328;85;21227;-78
2021/01/10 03:09:37;;;;;;;57.48;27.90;;;;;;;-0.10;80.27;100250.90;1669210;85;21250;-79
2021/01/10 03:12:25;;;;;;;59.55;27.07;;;;;;;-0.12;80.63;100248.28;1669541;85;21685;-77
2021/01/10 03:14:59;;;;;;;57.25;27.02;;;;;;;-0.12;80.62;100256.48;1670453;85;21221;-77
2021/01/10 03:17:43;;;;;;;48.70;22.73;;;;;;;-0.11;80.76;100259.53;1672458;85;21143;-76
2021/01/10 03:20:21;;;;;;;52.88;23.62;;;;;;;-0.10;80.91;100257.37;1671828;85;21143;-80
2021/01/10 03:22:50;;;;;;;54.88;26.05;;;;;;;-0.11;80.84;100257.80;1669711;85;21670;-80
2021/01/10 03:25:22;;;;;;;56.05;26.77;;;;;;;-0.11;80.98;100258.23;1669732;85;21509;-82
2021/01/10 03:27:50;;;;;;;54.98;25.85;;;;;;;-0.11;81.03;100259.09;1666047;85;21645;-80
2021/01/10 03:30:19;;;;;;;55.65;26.42;;;;;;;-0.08;81.17;100262.13;1655949;85;21195;-82
2021/01/10 03:32:47;;;;;;;56.23;26.73;;;;;;;-0.07;81.03;100263.86;1655510;86;22363;-80
2021/01/10 03:35:15;;;;;;;57.75;26.73;;;;;;;-0.06;80.90;100258.70;1655261;86;21623;-77
2021/01/10 03:37:45;;;;;;;60.20;27.15;;;;;;;0.00;81.41;100263.08;1655148;86;21187;-77
2021/01/10 03:40:13;;;;;;;55.65;26.07;;;;;;;0.02;81.02;100265.23;1655047;86;22325;-80
2021/01/10 03:42:41;;;;;;;54.60;25.95;;;;;;;0.03;81.04;100261.80;1655037;86;21623;-80
2021/01/10 03:45:10;;;;;;;52.48;25.68;;;;;;;0.03;80.90;100258.34;1655050;86;21203;-80
2021/01/10 03:47:38;;;;;;;61.10;26.75;;;;;;;0.06;81.20;100257.92;1655059;86;21204;-80
2021/01/10 03:50:08;;;;;;;50.78;24.35;;;;;;;0.09;81.17;100263.16;1655025;86;21175;-81
2021/01/10 03:52:36;;;;;;;48.13;22.32;;;;;;;0.11;81.27;100260.55;1655055;86;21418;-79
2021/01/10 03:55:08;;;;;;;58.08;27.52;;;;;;;0.11;81.33;100262.70;1657864;86;21215;-76
2021/01/10 03:57:37;;;;;;;52.67;25.52;;;;;;;0.14;81.44;100266.64;1652381;86;21356;-74
2021/01/10 04:00:08;;;;;;;64.22;30.25;;;;;;;0.16;81.52;100264.93;1636328;87;21260;-77
2021/01/10 04:02:36;;;;;;;56.83;26.73;;;;;;;0.18;81.27;100265.81;1607207;87;21529;-76
2021/01/10 04:05:07;;;;;;;58.60;28.12;;;;;;;0.19;81.88;100264.08;1611415;89;21466;-76
2021/01/10 04:07:38;;;;;;;57.33;26.50;;;;;;;0.20;81.69;100262.78;1611407;89;21241;-75
2021/01/10 04:10:07;;;;;;;51.25;25.75;;;;;;;0.24;81.22;100271.88;1611407;87;21270;-75
2021/01/10 04:12:35;;;;;;;58.33;29.07;;;;;;;0.25;81.18;100271.88;1611281;89;21214;-77
2021/01/10 04:15:06;;;;;;;64.05;29.87;;;;;;;0.22;81.02;100268.41;1611469;87;21270;-76
2021/01/10 04:17:34;;;;;;;61.95;28.62;;;;;;;0.22;81.64;100273.59;1611302;87;21392;-76
2021/01/10 04:20:05;;;;;;;58.70;26.17;;;;;;;0.20;81.05;100278.31;1611256;87;21682;-75
2021/01/10 04:22:32;;;;;;;52.45;26.48;;;;;;;0.22;81.25;100277.05;1611285;89;21238;-75
2021/01/10 04:25:03;;;;;;;56.00;26.90;;;;;;;0.21;81.33;100280.50;1611339;87;21270;-76
2021/01/10 04:27:30;;;;;;;57.43;26.48;;;;;;;0.23;81.40;100281.79;1611281;87;21255;-79
2021/01/10 04:29:58;;;;;;;46.35;22.67;;;;;;;0.22;81.62;100278.77;1581927;90;21860;-78
2021/01/10 04:32:26;;;;;;;61.28;27.75;;;;;;;0.23;81.81;100288.27;1581953;90;21240;-76
2021/01/10 04:34:54;;;;;;;64.90;29.90;;;;;;;0.26;81.67;100288.31;1581891;90;21626;-78
2021/01/10 04:37:21;;;;;;;55.65;27.42;;;;;;;0.26;81.72;100282.69;1581875;90;21220;-77
2021/01/10 04:39:49;;;;;;;57.85;25.82;;;;;;;0.27;81.66;100286.14;1581864;90;21220;-77
2021/01/10 04:42:18;;;;;;;53.65;25.43;;;;;;;0.27;81.93;100292.62;1581797;89;21404;-76
2021/01/10 04:44:45;;;;;;;53.63;25.90;;;;;;;0.28;82.14;100290.05;1581791;90;21295;-77
2021/01/10 04:47:14;;;;;;;60.38;29.90;;;;;;;0.30;81.63;100296.11;1581895;90;21212;-75
2021/01/10 04:49:41;;;;;;;56.13;28.12;;;;;;;0.31;81.50;100291.79;1581982;90;21185;-77
2021/01/10 04:52:09;;;;;;;62.00;28.65;;;;;;;0.29;81.16;100290.47;1581951;90;21292;-75
2021/01/10 04:54:41;;;;;;;60.15;27.25;;;;;;;0.28;81.18;100299.55;1588613;88;21541;-76
2021/01/10 04:57:12;;;;;;;47.40;24.87;;;;;;;0.26;81.24;100298.67;1619347;87;21869;-76
2021/01/10 04:59:41;;;;;;;54.38;27.48;;;;;;;0.28;81.55;100303.44;1626347;87;21214;-76
2021/01/10 05:02:10;;;;;;;55.73;26.15;;;;;;;0.29;81.33;100305.16;1681176;85;21206;-76
2021/01/10 05:04:38;;;;;;;51.90;22.77;;;;;;;0.26;81.38;100306.44;1664146;86;21174;-75
2021/01/10 05:07:06;;;;;;;50.15;23.73;;;;;;;0.26;81.64;100318.09;1663992;85;21228;-77
2021/01/10 05:09:37;;;;;;;51.13;24.37;;;;;;;0.27;81.53;100312.05;1664142;86;21642;-77
2021/01/10 05:12:05;;;;;;;;;;;;;;;0.28;81.34;100318.55;1640213;86;21227;-77
2021/01/10 05:14:32;;;;;;;;;;;;;;;0.25;81.37;100320.23;1666660;86;20299;-76
2021/01/10 05:17:02;;;;;;;;;;;;;;;0.25;81.51;100333.18;1666651;86;20298;-77
2021/01/10 05:19:31;;;;;;;;;;;;;;;0.25;81.42;100326.27;1635795;86;21385;-77
2021/01/10 05:22:07;;;;;;;;;;;;;;;0.26;81.96;100332.34;1652674;86;20280;-76
2021/01/10 05:24:34;;;;;;;;;;;;;;;0.27;81.27;100332.77;1635303;86;20570;-76
2021/01/10 05:27:04;;;;;;;;;;;;;;;0.26;81.45;100331.05;1652753;86;21052;-76
2021/01/10 05:29:31;;;;;;;;;;;;;;;0.29;81.26;100334.95;1650749;86;20237;-77
2021/01/10 05:32:01;;;;;;;;;;;;;;;0.28;80.87;100334.09;1635783;86;21849;-76
2021/01/10 05:34:29;;;;;;;;;;;;;;;0.28;80.97;100339.27;1648564;86;20276;-77
2021/01/10 05:36:57;;;;;;;;;;;;;;;0.27;81.00;100340.11;1628602;87;20253;-77
2021/01/10 05:39:26;;;;;;;;;;;;;;;0.29;81.18;100344.02;1590294;88;20309;-75
2021/01/10 05:42:00;;;;;;;;;;;;;;;0.26;81.23;100338.82;1628888;88;20750;-77
2021/01/10 05:44:30;;;;;;;;;;;;;;;0.29;81.43;100347.47;1662463;86;21227;-76
2021/01/10 05:47:03;;;;;;;;;;;;;;;0.30;81.60;100347.03;1652263;86;20292;-76
2021/01/10 05:49:31;;;;;;;;;;;;;;;0.28;81.62;100344.45;1637705;86;20303;-76
2021/01/10 05:52:07;;;;;;;;;;;;;;;0.28;81.50;100347.47;1645568;86;20295;-76
2021/01/10 05:54:48;;;;;;;;;;;;;;;0.29;81.38;100351.78;1646102;86;20313;-77
2021/01/10 05:57:26;;;;;;;;;;;;;;;0.28;81.13;100348.77;1652659;86;22187;-78
2021/01/10 05:59:54;;;;;;;;;;;;;;;0.26;81.22;100354.36;1620337;86;20848;-77
2021/01/10 06:02:29;;;;;;;;;;;;;;;0.25;81.35;100361.67;1628676;86;20296;-77
2021/01/10 06:05:16;;;;;;;;;;;;;;;0.27;81.47;100365.15;1652471;86;20232;-76
2021/01/10 06:07:45;;;;;;;;;;;;;;;0.28;81.29;100368.20;1652475;86;20281;-77
2021/01/10 06:10:12;;;;;;;;;;;;;;;0.26;81.63;100367.31;1652657;86;21387;-77
2021/01/10 06:12:40;;;;;;;;;;;;;;;0.25;81.78;100368.15;1652479;86;20578;-76
2021/01/10 06:15:12;;;;;;;;;;;;;;;0.26;81.93;100370.77;1652678;86;20551;-77
2021/01/10 06:17:46;;;;;;;;;;;;;;;0.26;81.75;100372.49;1652551;86;20259;-72
2021/01/10 06:20:23;;;;;;;;;;;;;;;0.26;81.78;100378.97;1652595;86;20323;-73
2021/01/10 06:22:53;;;;;;;;;;;;;;;0.27;81.54;100381.98;1663984;86;22416;-75
2021/01/10 06:25:22;;;;;;;;;;;;;;;0.27;81.17;100389.76;1650477;86;20577;-71
2021/01/10 06:28:00;;;;;;;;;;;;;;;0.25;81.16;100384.55;1652539;86;20267;-72
2021/01/10 06:30:30;;;;;;;;;;;;;;;0.25;81.32;100387.58;1651883;86;20565;-72
2021/01/10 06:33:07;;;;;;;;;;;;;;;0.25;81.02;100387.58;1647168;86;20285;-71
2021/01/10 06:35:37;;;;;;;;;;;;;;;0.26;81.20;100394.52;1652176;86;21407;-73
2021/01/10 06:38:06;;;;;;;;;;;;;;;0.26;81.19;100400.55;1645784;86;21212;-73
2021/01/10 06:40:34;;;;;;;;;;;;;;;0.26;81.31;100392.78;1639299;86;20238;-72
2021/01/10 06:43:05;;;;;;;;;;;;;;;0.30;81.40;100406.21;1648456;86;20228;-72
2021/01/10 06:45:39;;;;;;;;;;;;;;;0.32;81.61;100403.21;1652423;86;20256;-73
2021/01/10 06:48:08;;;;;;;;;;;;;;;0.32;81.10;100403.61;1648628;86;21405;-72
2021/01/10 06:50:38;;;;;;;;;;;;;;;0.32;80.71;100411.38;1641650;86;20268;-73
2021/01/10 06:53:07;;;;;;;;;;;;;;;0.33;80.81;100411.41;1606042;88;20270;-72
2021/01/10 06:55:36;;;;;;;;;;;;;;;0.37;80.88;100409.30;1603233;89;20303;-73
2021/01/10 06:58:10;;;;;;;;;;;;;;;0.39;80.90;100417.06;1668719;84;20331;-73
2021/01/10 07:00:54;;;;;;;;;;;;;;;0.39;80.72;100423.13;1655963;85;21371;-73
2021/01/10 07:03:24;;;;;;;;;;;;;;;0.40;80.49;100427.88;1674439;84;20559;-72
2021/01/10 07:06:08;;;;;;;;;;;;;;;0.41;80.52;100429.61;1661797;85;20952;-71
2021/01/10 07:08:43;;;;;;;;;;;;;;;0.42;80.62;100435.25;1658023;86;20275;-72
2021/01/10 07:11:27;;;;;;;;;;;;;;;0.41;80.96;100436.08;1661401;86;20264;-72
2021/01/10 07:14:01;;;;;;;;;;;;;;;0.41;81.14;100430.90;1656809;85;21417;-73
2021/01/10 07:16:30;;;;;;;;;;;;;;;0.40;81.01;100427.88;1665809;86;20291;-73
2021/01/10 07:18:59;;;;;;;;;;;;;;;0.43;80.92;100436.97;1667712;86;20649;-71
2021/01/10 07:21:44;;;;;;;;;;;;;;;0.40;80.55;100440.41;1669295;84;20279;-72
2021/01/10 07:24:15;;;;;;;;;;;;;;;0.37;80.49;100440.39;1641980;86;21022;-72
2021/01/10 07:26:45;;;;;;;;;;;;;;;0.34;80.68;100448.11;1648979;86;22305;-72
2021/01/10 07:29:31;;;;;;;;;;;;;;;0.33;80.82;100446.38;1645831;86;20602;-71
2021/01/10 07:32:08;;;;;;;;;;;;;;;0.34;80.85;100455.02;1659072;86;20282;-72
2021/01/10 07:34:46;;;;;;;;;;;;;;;0.31;81.03;100456.30;1627080;86;20407;-72
2021/01/10 07:37:24;;;;;;;;;;;;;;;0.29;80.97;100454.11;1638748;87;20313;-73
2021/01/10 07:39:58;;;;;;;;;;;;;;;0.30;81.02;100458.42;1646021;86;21235;-72
2021/01/10 07:42:30;;;;;;;;;;;;;;;0.30;81.16;100464.91;1630998;86;20659;-73
2021/01/10 07:45:17;;;;;;;;;;;;;;;0.30;81.28;100467.09;1633339;87;20295;-73
2021/01/10 07:47:51;;;;;;;;;;;;;;;0.31;81.28;100460.18;1618754;87;20804;-73
2021/01/10 07:50:20;;;;;;;;;;;;;;;0.31;81.43;100462.34;1609240;88;20264;-73
2021/01/10 07:52:51;;;;;;;;;;;;;;;0.37;81.89;100460.25;1609278;89;21100;-72
2021/01/10 07:55:21;;;;;;;;;;;;;;;0.40;82.07;100462.86;1661686;86;20267;-73
2021/01/10 07:58:03;;;;;;;;;;;;;;;0.43;82.01;100462.02;1667639;86;20386;-75
2021/01/10 08:00:36;;;;;;;;;;;;;;;0.46;82.11;100466.81;1640797;87;21121;-73
2021/01/10 08:03:09;;;;;;;;;;;;;;;0.48;81.79;100463.78;1629435;87;20519;-77
2021/01/10 08:05:38;;;;;;;;;;;;;;;0.50;81.67;100469.85;1606836;87;22138;-79
2021/01/10 08:08:15;;;;;;;;;;;;;;;0.51;81.62;100471.61;1656970;85;20315;-77
2021/01/10 08:10:46;;;;;;;;;;;;;;;0.53;81.79;100465.13;1672977;84;20238;-73
2021/01/10 08:13:30;;;;;;;;;;;;;;;0.58;81.59;100472.10;1639136;86;20272;-73
2021/01/10 08:16:09;;;;;;;;;;;;;;;0.61;81.88;100478.59;1609087;87;20398;-72
2021/01/10 08:18:42;;;;;;;;;;;;;;;0.65;81.96;100471.73;1650847;86;21420;-73
2021/01/10 08:21:13;;;;;;;;;;;;;;;0.68;82.12;100477.37;1632875;86;20280;-73
2021/01/10 08:23:42;;;;;;;;;;;;;;;0.73;82.42;100474.37;1609430;88;20611;-72
2021/01/10 08:26:12;;;;;;;;;;;;;;;0.77;82.28;100477.45;1666884;86;20275;-71
2021/01/10 08:28:43;;;;;;;;;;;;;;;0.80;82.03;100476.16;1667283;86;20514;-73
2021/01/10 08:31:13;;;;;;;;;;;;;;;0.80;81.35;100477.46;1673756;85;22556;-73
2021/01/10 08:33:40;;;;;;;;;;;;;;;0.81;81.51;100480.52;1629131;88;20559;-74
2021/01/10 08:36:17;;;;;;;;;;;;;;;0.82;81.42;100482.23;1629069;88;20266;-72
2021/01/10 08:39:06;;;;;;;;;;;;;;;0.92;81.43;100476.28;1867183;76;20249;-72
2021/01/10 08:41:38;;;;;;;;;;;;;;;0.91;81.03;100481.02;1822423;77;20311;-73
2021/01/10 08:44:12;;;;;;;;;;;;;;;0.97;81.54;100478.48;1822283;77;23538;-74
2021/01/10 08:46:41;;;;;;;;;;;;;;;1.03;81.62;100482.39;1818494;78;20585;-74
2021/01/10 08:49:09;;;;;;;;;;;;;;;1.10;81.41;100483.75;1746704;82;20225;-76
2021/01/10 08:51:44;;;;;;;;;;;;;;;1.14;81.84;100473.84;1746581;82;20273;-75
2021/01/10 08:54:15;;;;;;;;;;;;;;;1.24;81.12;100473.92;1750348;80;20249;-76
2021/01/10 08:56:56;;;;;;;;;;;;;;;1.34;80.76;100480.03;1849066;77;20889;-76
2021/01/10 08:59:36;;;;;;;;;;;;;;;1.30;80.13;100488.64;1804590;79;20587;-75
2021/01/10 09:02:07;;;;;;;;;;;;;;;1.33;80.69;100480.87;1785631;80;22326;-77
2021/01/10 09:04:41;;;;;;;;;;;;;;;1.32;79.71;100473.95;1786131;80;20262;-78
2021/01/10 09:07:14;;;;;;;;;;;;;;;1.36;79.90;100471.83;1786244;80;20318;-75
2021/01/10 09:09:54;;;;;;;;;;;;;;;1.40;79.63;100475.29;1786149;80;20274;-75
2021/01/10 09:12:38;;;;;;;;;;;;;;;1.43;79.57;100480.08;1786207;80;20298;-75
2021/01/10 09:16:28;;;;;;;42.60;19.77;;;;;;;1.52;78.79;100473.19;1759391;79;22068;-75
2021/01/10 09:18:56;;;;;;;45.38;21.30;;;;;;;1.44;76.84;100470.13;1678761;79;21648;-68
2021/01/10 09:21:27;;;;;;;41.02;19.92;;;;;;;1.43;77.77;100464.51;1664194;86;21282;-70
2021/01/10 09:23:58;;;;;;;42.20;19.25;;;;;;;1.48;78.03;100464.53;1664952;85;21834;-69
2021/01/10 09:26:30;;;;;;;42.20;19.98;;;;;;;1.52;78.59;100464.10;1645195;85;21222;-72
2021/01/10 09:28:59;;;;;;;46.45;20.82;;;;;;;1.59;78.81;100460.70;1649604;85;21210;-68
2021/01/10 09:31:43;;;;;;;42.53;21.00;;;;;;;1.66;78.69;100462.47;1669679;85;21191;-69
2021/01/10 09:34:10;;;;;;;44.48;21.60;;;;;;;1.70;77.38;100462.03;1669946;84;22365;-69
2021/01/10 09:36:42;;;;;;;50.20;23.87;;;;;;;1.71;77.01;100454.27;1666233;80;21752;-79
2021/01/10 09:39:09;;;;;;;41.42;20.43;;;;;;;1.74;76.92;100462.05;1651898;86;21238;-79
2021/01/10 09:41:54;;;;;;;43.30;22.85;;;;;;;1.74;77.35;100456.86;1655421;86;21178;-77
2021/01/10 09:44:21;;;;;;;41.33;18.45;;;;;;;1.75;77.45;100462.51;1655153;86;21633;-78
2021/01/10 09:46:53;;;;;;;42.67;19.92;;;;;;;1.76;78.03;100460.33;1655248;86;24351;-78
2021/01/10 09:49:25;;;;;;;41.28;21.30;;;;;;;1.80;77.40;100462.09;1654861;86;22099;-76
2021/01/10 09:51:55;;;;;;;47.10;22.73;;;;;;;1.81;77.17;100463.81;1671700;85;21180;-78
2021/01/10 09:54:25;;;;;;;44.18;22.13;;;;;;;1.80;76.68;100458.63;1677422;85;21206;-78
2021/01/10 09:56:57;;;;;;;;;;;;;;;1.83;77.18;100459.49;1657819;86;21643;-77
2021/01/10 09:59:58;;;;;;;45.10;22.00;;;;;;;1.85;77.16;100455.17;1651194;86;21045;-77
2021/01/10 10:02:35;;;;;;;39.27;18.30;;;;;;;1.87;76.74;100457.79;1630184;87;21200;-77
2021/01/10 10:05:19;;;;;;;41.42;19.73;;;;;;;1.87;75.75;100461.69;1639296;87;21171;-78
2021/01/10 10:07:50;;;;;;;38.55;18.73;;;;;;;1.88;75.73;100453.87;1634798;87;21179;-77
2021/01/10 10:10:27;;;;;;;35.60;17.75;;;;;;;1.91;76.13;100457.35;1655224;86;21230;-78
2021/01/10 10:12:59;;;;;;;38.20;19.85;;;;;;;1.96;76.94;100457.82;1655298;86;21388;-76
2021/01/10 10:15:43;;;;;;;37.85;19.00;;;;;;;2.03;76.12;100456.98;1655194;86;21202;-76
2021/01/10 10:18:31;;;;;;;44.30;21.17;;;;;;;2.05;76.19;100454.39;1655297;86;21242;-78
2021/01/10 10:21:00;;;;;;;35.45;17.37;;;;;;;2.07;75.47;100457.83;1655226;86;21128;-78
2021/01/10 10:23:29;;;;;;;37.85;18.60;;;;;;;2.05;74.67;100450.06;1655344;86;21234;-77
2021/01/10 10:25:56;;;;;;;40.52;19.82;;;;;;;2.00;74.11;100452.19;1639336;87;21649;-76
2021/01/10 10:28:24;;;;;;;42.40;19.20;;;;;;;1.96;74.34;100454.36;1639091;87;21685;-77
2021/01/10 10:30:52;;;;;;;36.35;18.25;;;;;;;1.88;73.65;100457.77;1638977;87;21178;-77
2021/01/10 10:33:20;;;;;;;41.08;19.52;;;;;;;1.86;74.98;100460.83;1638886;87;21725;-78
2021/01/10 10:35:48;;;;;;;41.75;20.37;;;;;;;1.87;74.50;100456.05;1638897;87;21187;-76
2021/01/10 10:38:16;;;;;;;38.85;19.10;;;;;;;1.95;74.57;100452.61;1617831;87;21233;-77
2021/01/10 10:40:43;;;;;;;37.55;17.00;;;;;;;1.98;74.90;100460.41;1624058;87;21616;-76
2021/01/10 10:43:11;;;;;;;32.95;15.30;;;;;;;1.99;74.79;100462.16;1648630;87;21614;-78
2021/01/10 10:45:39;;;;;;;41.92;19.35;;;;;;;2.00;75.05;100465.17;1616779;88;21210;-78
2021/01/10 10:48:07;;;;;;;40.12;18.60;;;;;;;1.97;74.43;100456.08;1648592;87;21182;-77
2021/01/10 10:50:36;;;;;;;40.25;19.15;;;;;;;1.93;74.40;100455.62;1646607;87;22243;-77
2021/01/10 10:53:05;;;;;;;29.85;15.43;;;;;;;1.85;73.72;100452.58;1648454;87;21300;-78
2021/01/10 10:55:35;;;;;;;33.45;15.35;;;;;;;1.77;73.27;100454.70;1648924;87;21217;-79
2021/01/10 10:58:04;;;;;;;35.83;17.52;;;;;;;1.69;72.42;100449.48;1650417;85;21268;-76
2021/01/10 11:00:35;;;;;;;27.45;15.05;;;;;;;1.65;72.90;100446.00;1629095;87;21256;-78
2021/01/10 11:03:05;;;;;;;;;;;;;;;1.67;73.17;100449.91;1667720;84;21679;-75
2021/01/10 11:05:32;;;;;;;37.30;19.20;;;;;;;1.68;73.05;100451.66;1659309;85;20298;-74
2021/01/10 11:08:01;;;;;;;32.93;17.37;;;;;;;1.70;73.65;100452.51;1649301;85;21214;-74
2021/01/10 11:10:28;;;;;;;36.05;17.37;;;;;;;1.74;73.39;100451.66;1615810;87;21667;-75
2021/01/10 11:12:56;;;;;;;28.32;15.35;;;;;;;1.74;73.25;100451.66;1645611;85;21191;-74
2021/01/10 11:15:24;;;;;;;34.15;17.27;;;;;;;1.76;73.04;100446.05;1619834;87;21815;-74
2021/01/10 11:17:52;;;;;;;31.95;15.10;;;;;;;1.81;73.15;100453.42;1620453;87;21227;-73
2021/01/10 11:20:21;;;;;;;29.12;14.73;;;;;;;1.81;72.58;100450.83;1626399;87;21204;-74
2021/01/10 11:22:50;;;;;;;27.77;13.70;;;;;;;1.84;73.01;100455.16;1618696;87;22340;-73
2021/01/10 11:25:18;;;;;;;25.02;12.20;;;;;;;1.84;72.96;100456.05;1620590;87;21252;-73
2021/01/10 11:27:46;;;;;;;26.68;14.20;;;;;;;1.89;73.50;100459.53;1626521;87;21505;-76
2021/01/10 11:30:15;;;;;;;24.95;12.55;;;;;;;1.97;72.82;100457.38;1620538;87;21164;-74
2021/01/10 11:32:43;;;;;;;29.60;15.08;;;;;;;2.04;72.57;100460.43;1643897;87;21211;-76
2021/01/10 11:35:12;;;;;;;28.50;14.30;;;;;;;2.08;71.79;100460.45;1620495;87;21284;-74
2021/01/10 11:37:39;;;;;;;26.05;13.22;;;;;;;2.10;70.67;100458.72;1669828;84;21189;-74
2021/01/10 11:40:09;;;;;;;25.40;12.60;;;;;;;2.13;70.26;100466.95;1685700;84;23042;-75
2021/01/10 11:42:37;;;;;;;28.63;13.07;;;;;;;2.14;70.20;100465.22;1666348;84;21182;-75
2021/01/10 11:45:07;;;;;;;25.43;13.35;;;;;;;2.16;69.82;100456.55;1652724;85;21231;-75
2021/01/10 11:47:35;;;;;;;23.38;12.07;;;;;;;2.21;69.55;100460.47;1639676;85;21176;-76
2021/01/10 11:52:45;;;;;;;22.58;10.93;;;;;;;2.25;69.20;100463.08;1672054;85;21270;-78
2021/01/10 11:55:20;;;;;;;24.75;12.00;;;;;;;2.20;69.67;100462.20;1670401;84;21190;-76
2021/01/10 11:57:48;;;;;;;20.10;10.38;;;;;;;2.23;70.35;100471.33;1673644;85;21196;-78
2021/01/10 12:00:18;;;;;;;24.52;12.23;;;;;;;2.19;70.95;100473.91;1674385;84;21227;-77
2021/01/10 12:02:46;;;;;;;24.65;11.18;;;;;;;2.17;70.24;100476.50;1658019;86;21217;-77
2021/01/10 12:05:14;;;;;;;25.20;13.48;;;;;;;2.19;70.36;100477.37;1658095;86;21656;-78
2021/01/10 12:07:42;;;;;;;26.48;14.05;;;;;;;2.20;70.71;100479.53;1658123;86;21750;-77